LEPA/PMI METAR and TAF weather

Enter ICAO airport designator
Station Type Date Time Source
LEPA METAR 2020/12/06 01:30 UTC NOAA

LEPA 060130Z 27005KT 9999 FEW040 07/03 Q1003 NOSIG


Station Type Date Time Source
LEPA Decoded METAR 2020/12/06 01:30 UTC NOAA

Palma De Mallorca / Son San Juan, Spain (LEPA) 39-33N 002-44E 8M
Dec 05, 2020 - 08:30 PM EST / 2020.12.06 0130 UTC
Wind: from the W (270 degrees) at 6 MPH (5 KT):0
Visibility: greater than 7 mile(s):0
Sky conditions: mostly clear
Temperature: 44 F (7 C)
Dew Point: 37 F (3 C)
Relative Humidity: 75%
Pressure (altimeter): 29.62 in. Hg (1003 hPa)
ob: LEPA 060130Z 27005KT 9999 FEW040 07/03 Q1003 NOSIG
cycle: 1

Station Type Date Time Source
LEPA TAF 2020/12/05 18:27 UTC NOAA

TAF LEPA 051700Z 0518/0618 30010KT 9999 SCT040 TX15/0612Z TN08/0606Z
BECMG 0518/0520 VRB03KT
BECMG 0604/0606 30010KT

Example: see airport list